createdAt,value
2023-01-17T00:01:46.553Z,7.28
2023-01-17T00:04:31.982Z,7.33
2023-01-17T00:07:17.368Z,7.30
2023-01-17T00:09:53.067Z,7.32
2023-01-17T00:12:21.142Z,7.47
2023-01-17T00:14:48.674Z,7.35
2023-01-17T00:17:15.724Z,7.30
2023-01-17T00:20:01.140Z,7.07
2023-01-17T00:22:48.525Z,7.34
2023-01-17T00:25:45.773Z,7.72
2023-01-17T00:28:12.701Z,7.97
2023-01-17T00:30:39.294Z,8.00
2023-01-17T00:33:05.972Z,7.77
2023-01-17T00:35:33.214Z,7.67
2023-01-17T00:38:07.005Z,7.41
2023-01-17T00:40:35.499Z,7.47
2023-01-17T00:43:21.246Z,7.47
2023-01-17T00:46:06.758Z,7.60
2023-01-17T00:48:52.479Z,7.64
2023-01-17T00:51:38.851Z,7.33
2023-01-17T00:54:24.830Z,7.55
2023-01-17T00:57:10.616Z,7.57
2023-01-17T00:59:56.510Z,7.62
2023-01-17T01:02:42.063Z,7.66
2023-01-17T01:05:28.790Z,7.75
2023-01-17T01:08:14.198Z,7.70
2023-01-17T01:10:59.887Z,7.79
2023-01-17T01:13:47.225Z,7.52
2023-01-17T01:16:33.766Z,7.17
2023-01-17T01:19:19.146Z,7.39
2023-01-17T01:22:04.568Z,7.39
2023-01-17T01:24:49.924Z,7.08
2023-01-17T01:27:35.135Z,7.17
2023-01-17T01:30:21.171Z,7.25
2023-01-17T01:33:06.525Z,7.16
2023-01-17T01:35:33.166Z,7.38
2023-01-17T01:38:02.277Z,7.23
2023-01-17T01:40:29.020Z,7.42
2023-01-17T01:42:58.132Z,7.33
2023-01-17T01:45:30.303Z,7.13
2023-01-17T01:48:33.661Z,7.43
2023-01-17T01:51:05.746Z,7.61
2023-01-17T01:53:36.297Z,7.35
2023-01-17T01:56:06.772Z,7.31
2023-01-17T01:58:34.792Z,7.14
2023-01-17T02:01:01.843Z,6.91
2023-01-17T02:03:32.241Z,7.20
2023-01-17T02:06:06.870Z,7.04
2023-01-17T02:08:34.347Z,7.15
2023-01-17T02:11:02.115Z,7.10
2023-01-17T02:13:29.155Z,7.30
2023-01-17T02:15:59.641Z,7.11
2023-01-17T02:18:53.971Z,7.19
2023-01-17T02:21:43.168Z,7.43
2023-01-17T02:24:34.311Z,7.34
2023-01-17T02:27:09.352Z,7.28
2023-01-17T02:29:41.979Z,6.89
2023-01-17T02:32:40.800Z,7.05
2023-01-17T02:35:12.393Z,7.00
2023-01-17T02:38:05.633Z,6.97
2023-01-17T02:40:43.399Z,6.83
2023-01-17T02:43:15.534Z,7.13
2023-01-17T02:45:42.402Z,7.01
2023-01-17T02:48:12.487Z,7.15
2023-01-17T02:50:44.765Z,7.45
2023-01-17T02:53:33.415Z,7.10
2023-01-17T02:56:13.021Z,7.07
2023-01-17T02:59:15.624Z,7.03
2023-01-17T03:01:48.605Z,7.24
2023-01-17T03:04:24.339Z,7.30
2023-01-17T03:06:57.547Z,7.48
2023-01-17T03:09:25.916Z,7.58
2023-01-17T03:11:52.979Z,7.36
2023-01-17T03:14:19.597Z,7.28
2023-01-17T03:16:46.564Z,7.22
2023-01-17T03:19:14.688Z,7.17
2023-01-17T03:21:41.895Z,7.14
2023-01-17T03:24:08.782Z,7.21
2023-01-17T03:26:35.535Z,6.67
2023-01-17T03:29:02.204Z,6.55
2023-01-17T03:31:28.869Z,6.96
2023-01-17T03:33:55.560Z,6.70
2023-01-17T03:36:22.238Z,6.66
2023-01-17T03:38:48.955Z,6.71
2023-01-17T03:41:15.650Z,6.90
2023-01-17T03:43:42.274Z,6.73
2023-01-17T03:46:23.568Z,6.82
2023-01-17T03:48:51.003Z,6.75
2023-01-17T03:51:18.350Z,6.55
2023-01-17T03:53:46.898Z,6.56
2023-01-17T03:56:14.267Z,6.70
2023-01-17T03:58:41.553Z,6.48
2023-01-17T04:01:09.042Z,6.74
2023-01-17T04:03:35.767Z,6.79
2023-01-17T04:06:02.499Z,6.89
2023-01-17T04:08:29.364Z,6.97
2023-01-17T04:10:56.412Z,6.97
2023-01-17T04:13:23.168Z,6.97
2023-01-17T04:15:51.167Z,6.89
2023-01-17T04:18:20.263Z,7.17
2023-01-17T04:20:47.312Z,7.26
2023-01-17T04:23:14.050Z,7.31
2023-01-17T04:25:40.769Z,7.19
2023-01-17T04:28:07.601Z,7.02
2023-01-17T04:30:34.339Z,7.09
2023-01-17T04:33:01.137Z,7.18
2023-01-17T04:35:30.184Z,7.08
2023-01-17T04:37:56.920Z,7.25
2023-01-17T04:40:23.890Z,7.07
2023-01-17T04:42:51.318Z,7.06
2023-01-17T04:45:18.281Z,7.07
2023-01-17T04:47:44.913Z,7.17
2023-01-17T04:50:11.810Z,7.15
2023-01-17T04:52:38.617Z,7.16
2023-01-17T04:55:06.180Z,7.19
2023-01-17T04:57:32.845Z,7.22
2023-01-17T04:59:59.509Z,7.12
2023-01-17T05:02:26.259Z,7.23
2023-01-17T05:04:54.132Z,7.23
2023-01-17T05:07:20.807Z,7.37
2023-01-17T05:09:47.685Z,7.47
2023-01-17T05:12:14.431Z,7.52
2023-01-17T05:14:41.183Z,7.29
2023-01-17T05:17:07.847Z,7.37
2023-01-17T05:19:34.820Z,7.25
2023-01-17T05:22:04.161Z,7.27
2023-01-17T05:24:32.240Z,7.07
2023-01-17T05:27:02.856Z,7.14
2023-01-17T05:29:30.313Z,7.00
2023-01-17T05:31:57.070Z,6.83
2023-01-17T05:34:23.991Z,6.79
2023-01-17T05:36:50.931Z,6.87
2023-01-17T05:39:17.956Z,6.79
2023-01-17T05:41:44.883Z,6.83
2023-01-17T05:44:15.366Z,6.84
2023-01-17T05:46:42.364Z,6.74
2023-01-17T05:49:09.108Z,6.87
2023-01-17T05:51:37.772Z,7.00
2023-01-17T05:54:05.508Z,7.06
2023-01-17T05:56:33.228Z,7.08
2023-01-17T05:59:00.372Z,7.17
2023-01-17T06:01:27.292Z,7.16
2023-01-17T06:03:54.000Z,7.07
2023-01-17T06:06:20.905Z,7.09
2023-01-17T06:08:47.730Z,7.07
2023-01-17T06:11:14.417Z,7.15
2023-01-17T06:13:41.131Z,7.24
2023-01-17T06:16:08.335Z,7.21
2023-01-17T06:18:35.042Z,7.23
2023-01-17T06:21:01.789Z,7.25
2023-01-17T06:23:28.438Z,7.22
2023-01-17T06:25:55.069Z,7.23
2023-01-17T06:28:23.385Z,7.22
2023-01-17T06:30:50.405Z,7.22
2023-01-17T06:33:17.148Z,7.24
2023-01-17T06:35:49.081Z,7.24
2023-01-17T06:38:16.331Z,7.21
2023-01-17T06:40:43.108Z,7.19
2023-01-17T06:43:10.171Z,7.18
2023-01-17T06:45:36.839Z,7.12
2023-01-17T06:48:05.102Z,7.13
2023-01-17T06:50:32.974Z,7.12
2023-01-17T06:53:02.665Z,7.09
2023-01-17T06:55:31.023Z,7.05
2023-01-17T06:57:59.575Z,7.10
2023-01-17T07:00:27.445Z,7.15
2023-01-17T07:02:54.473Z,7.17
2023-01-17T07:05:21.659Z,7.19
2023-01-17T07:07:48.703Z,7.20
2023-01-17T07:10:15.927Z,7.19
2023-01-17T07:12:42.809Z,7.13
2023-01-17T07:15:10.317Z,7.04
2023-01-17T07:17:37.127Z,7.02
2023-01-17T07:20:04.255Z,6.95
2023-01-17T07:22:30.933Z,6.92
2023-01-17T07:24:58.833Z,6.91
2023-01-17T07:27:30.178Z,6.83
2023-01-17T07:29:57.817Z,6.81
2023-01-17T07:32:26.620Z,6.82
2023-01-17T07:34:54.454Z,6.75
2023-01-17T07:37:21.261Z,6.79
2023-01-17T07:39:48.000Z,6.93
2023-01-17T07:42:15.074Z,6.91
2023-01-17T07:44:43.964Z,6.97
2023-01-17T07:47:11.316Z,7.00
2023-01-17T07:49:38.376Z,7.04
2023-01-17T07:52:08.909Z,7.08
2023-01-17T07:54:35.742Z,7.11
2023-01-17T07:57:03.341Z,7.16
2023-01-17T07:59:30.157Z,7.15
2023-01-17T08:01:56.917Z,7.20
2023-01-17T08:04:27.404Z,7.24
2023-01-17T08:06:55.013Z,7.31
2023-01-17T08:09:21.899Z,7.30
2023-01-17T08:11:48.632Z,7.28
2023-01-17T08:14:15.328Z,7.37
2023-01-17T08:16:42.089Z,7.47
2023-01-17T08:19:08.847Z,7.51
2023-01-17T08:21:35.478Z,7.40
2023-01-17T08:24:02.268Z,7.46
2023-01-17T08:26:28.922Z,7.52
2023-01-17T08:29:00.145Z,7.50
2023-01-17T08:31:28.426Z,7.49
2023-01-17T08:33:56.451Z,7.43
2023-01-17T08:36:25.591Z,7.41
2023-01-17T08:38:52.864Z,7.47
2023-01-17T08:41:20.852Z,7.47
2023-01-17T08:43:48.776Z,7.64
2023-01-17T08:46:15.601Z,7.73
2023-01-17T08:48:42.697Z,7.70
2023-01-17T08:51:09.398Z,7.63
2023-01-17T08:53:36.114Z,7.58
2023-01-17T08:56:05.065Z,7.88
2023-01-17T08:58:32.867Z,7.87
2023-01-17T09:01:04.255Z,7.93
2023-01-17T09:03:31.990Z,7.93
2023-01-17T09:06:05.893Z,8.04
2023-01-17T09:08:33.519Z,8.10
2023-01-17T09:11:08.322Z,8.08
2023-01-17T09:13:35.675Z,8.11
2023-01-17T09:16:02.979Z,8.22
2023-01-17T09:18:30.841Z,8.19
2023-01-17T09:20:59.325Z,8.40
2023-01-17T09:23:29.734Z,8.64
2023-01-17T09:25:58.458Z,8.77
2023-01-17T09:28:26.821Z,8.81
2023-01-17T09:30:54.642Z,8.76
2023-01-17T09:33:23.136Z,8.88
2023-01-17T09:35:50.061Z,9.00
2023-01-17T09:38:17.018Z,8.96
2023-01-17T09:40:48.597Z,8.99
2023-01-17T09:43:33.371Z,9.06
2023-01-17T09:46:01.364Z,9.13
2023-01-17T09:48:36.823Z,8.83
2023-01-17T09:51:18.197Z,8.75
2023-01-17T09:53:44.949Z,8.86
2023-01-17T09:56:15.797Z,8.83
2023-01-17T09:58:57.211Z,8.83
2023-01-17T10:01:46.109Z,9.03
2023-01-17T10:04:25.089Z,9.15
2023-01-17T10:07:03.924Z,9.21
2023-01-17T10:10:02.809Z,9.29
2023-01-17T10:12:33.445Z,9.51
2023-01-17T10:15:11.745Z,9.57
2023-01-17T10:17:44.497Z,9.54
2023-01-17T10:20:20.260Z,9.79
2023-01-17T10:23:17.853Z,9.86
2023-01-17T10:25:54.960Z,9.71
2023-01-17T10:28:38.092Z,9.46
2023-01-17T10:31:18.459Z,9.52
2023-01-17T10:33:56.084Z,9.67
2023-01-17T10:36:25.630Z,9.81
2023-01-17T10:38:56.808Z,9.73
2023-01-17T10:41:32.885Z,9.69
2023-01-17T10:44:23.282Z,9.54
2023-01-17T10:46:59.208Z,9.76
2023-01-17T10:49:28.331Z,9.59
2023-01-17T10:52:45.105Z,9.79
2023-01-17T10:55:32.964Z,9.68
2023-01-17T10:57:59.785Z,9.94
2023-01-17T11:00:51.267Z,9.86
2023-01-17T11:03:23.810Z,10.03
2023-01-17T11:06:15.264Z,10.01
2023-01-17T11:09:11.827Z,9.98
2023-01-17T11:11:47.840Z,10.44
2023-01-17T11:14:26.238Z,10.53
2023-01-17T11:17:00.821Z,10.62
2023-01-17T11:19:31.475Z,10.38
2023-01-17T11:22:03.072Z,10.40
2023-01-17T11:24:47.322Z,10.41
2023-01-17T11:27:27.400Z,10.55
2023-01-17T11:30:19.810Z,10.40
2023-01-17T11:32:57.966Z,9.92
2023-01-17T11:35:30.928Z,9.76
2023-01-17T11:38:20.309Z,9.35
2023-01-17T11:40:49.308Z,9.35
2023-01-17T11:43:23.533Z,9.50
2023-01-17T11:46:05.443Z,9.73
2023-01-17T11:48:38.544Z,9.75
2023-01-17T11:51:18.024Z,9.47
2023-01-17T11:53:48.594Z,9.98
2023-01-17T11:56:25.276Z,9.96
2023-01-17T11:58:52.535Z,10.24
2023-01-17T12:01:32.915Z,10.50
2023-01-17T12:04:19.326Z,10.86
2023-01-17T12:06:58.664Z,11.02
2023-01-17T12:09:28.063Z,11.16
2023-01-17T12:12:16.344Z,11.13
2023-01-17T12:15:00.359Z,11.01
2023-01-17T12:17:51.295Z,10.75
2023-01-17T12:20:43.427Z,10.40
2023-01-17T12:23:38.674Z,10.61
2023-01-17T12:26:27.558Z,10.58
2023-01-17T12:29:42.118Z,10.61
2023-01-17T12:32:25.282Z,10.59
2023-01-17T12:35:00.694Z,10.49
2023-01-17T12:37:40.140Z,10.51
2023-01-17T12:40:20.724Z,10.62
2023-01-17T12:42:59.038Z,10.39
2023-01-17T12:45:35.031Z,10.22
2023-01-17T12:48:10.786Z,10.14
2023-01-17T12:50:49.258Z,10.21
2023-01-17T12:53:26.920Z,9.99
2023-01-17T12:56:11.798Z,9.86
2023-01-17T12:58:43.237Z,9.78
2023-01-17T13:01:29.453Z,9.75
2023-01-17T13:04:06.059Z,9.82
2023-01-17T13:06:42.282Z,9.88
2023-01-17T13:09:13.854Z,9.95
2023-01-17T13:11:49.732Z,9.94
2023-01-17T13:14:16.643Z,9.98
2023-01-17T13:16:49.998Z,9.96
2023-01-17T13:19:31.144Z,10.02
2023-01-17T13:21:59.221Z,10.14
2023-01-17T13:24:57.120Z,10.14
2023-01-17T13:27:35.317Z,10.20
2023-01-17T13:30:22.152Z,10.30
2023-01-17T13:33:01.646Z,10.29
2023-01-17T13:35:47.685Z,10.27
2023-01-17T13:38:29.524Z,10.11
2023-01-17T13:40:58.511Z,10.00
2023-01-17T13:43:37.266Z,9.93
2023-01-17T13:46:04.445Z,9.93
2023-01-17T13:48:40.912Z,9.91
2023-01-17T13:51:10.059Z,9.82
2023-01-17T13:53:39.603Z,9.74
2023-01-17T13:56:13.979Z,9.72
2023-01-17T13:58:54.824Z,9.71
2023-01-17T14:01:24.769Z,9.71
2023-01-17T14:03:51.714Z,9.70
2023-01-17T14:06:37.184Z,9.67
2023-01-17T14:09:13.042Z,9.65
2023-01-17T14:11:52.211Z,9.69
2023-01-17T14:14:44.378Z,9.58
2023-01-17T14:17:23.535Z,9.53
2023-01-17T14:20:12.486Z,9.49
2023-01-17T14:22:47.380Z,9.38
2023-01-17T14:25:19.926Z,9.37
2023-01-17T14:27:50.081Z,9.42
2023-01-17T14:30:18.181Z,9.37
2023-01-17T14:33:16.681Z,9.41
2023-01-17T14:35:57.642Z,9.39
2023-01-17T14:38:33.481Z,9.29
2023-01-17T14:41:07.463Z,9.33
2023-01-17T14:43:37.664Z,9.24
2023-01-17T14:46:15.450Z,9.16
2023-01-17T14:48:42.576Z,9.14
2023-01-17T14:51:21.538Z,9.07
2023-01-17T14:53:59.371Z,9.08
2023-01-17T14:56:28.548Z,9.04
2023-01-17T14:59:14.780Z,9.07
2023-01-17T15:01:42.717Z,9.07
2023-01-17T15:04:24.041Z,9.05
2023-01-17T15:06:50.927Z,9.03
2023-01-17T15:09:20.199Z,9.03
2023-01-17T15:11:50.027Z,9.04
2023-01-17T15:14:22.181Z,9.05
2023-01-17T15:16:51.920Z,8.93
2023-01-17T15:19:19.914Z,8.80
2023-01-17T15:21:50.580Z,8.54
2023-01-17T15:24:27.564Z,8.63
2023-01-17T15:26:54.650Z,8.67
2023-01-17T15:29:25.807Z,8.45
2023-01-17T15:31:58.062Z,8.54
2023-01-17T15:34:33.611Z,8.52
2023-01-17T15:37:07.966Z,8.46
2023-01-17T15:39:38.962Z,8.50
2023-01-17T15:42:08.684Z,8.36
2023-01-17T15:44:48.423Z,8.37
2023-01-17T15:47:30.829Z,8.35
2023-01-17T15:49:58.815Z,8.28
2023-01-17T15:52:26.078Z,8.19
2023-01-17T15:55:11.345Z,8.18
2023-01-17T15:57:39.665Z,8.11
2023-01-17T16:00:21.809Z,8.22
2023-01-17T16:02:57.072Z,8.14
2023-01-17T16:05:24.249Z,8.13
2023-01-17T16:07:52.306Z,8.19
2023-01-17T16:10:31.681Z,8.20
2023-01-17T16:12:59.643Z,8.18
2023-01-17T16:15:27.900Z,8.17
2023-01-17T16:18:01.239Z,8.18
2023-01-17T16:20:27.862Z,7.99
2023-01-17T16:22:54.608Z,8.11
2023-01-17T16:25:23.125Z,8.09
2023-01-17T16:27:50.135Z,8.09
2023-01-17T16:30:19.314Z,8.20
2023-01-17T16:32:51.092Z,8.21
2023-01-17T16:35:20.703Z,8.28
2023-01-17T16:37:56.180Z,8.29
2023-01-17T16:40:25.307Z,8.30
2023-01-17T16:42:52.021Z,8.15
2023-01-17T16:45:19.044Z,8.19
2023-01-17T16:47:47.441Z,8.20
2023-01-17T16:50:17.552Z,8.03
2023-01-17T16:52:44.331Z,7.96
2023-01-17T16:55:14.554Z,8.00
2023-01-17T16:57:41.754Z,7.90
2023-01-17T17:00:10.471Z,7.93
2023-01-17T17:02:38.518Z,7.89
2023-01-17T17:05:07.351Z,7.90
2023-01-17T17:07:43.999Z,7.86
2023-01-17T17:10:12.425Z,7.84
2023-01-17T17:12:39.039Z,7.77
2023-01-17T17:15:06.294Z,7.73
2023-01-17T17:17:40.950Z,7.75
2023-01-17T17:20:12.931Z,7.71
2023-01-17T17:22:42.924Z,7.66
2023-01-17T17:25:11.797Z,7.70
2023-01-17T17:27:39.120Z,7.69
2023-01-17T17:30:06.488Z,7.61
2023-01-17T17:32:33.296Z,7.62
2023-01-17T17:35:00.186Z,7.53
2023-01-17T17:37:28.993Z,7.34
2023-01-17T17:39:56.441Z,7.46
2023-01-17T17:42:23.280Z,7.36
2023-01-17T17:44:49.883Z,7.31
2023-01-17T17:47:16.611Z,7.43
2023-01-17T17:49:43.497Z,7.43
2023-01-17T17:52:10.162Z,7.42
2023-01-17T17:54:36.938Z,7.39
2023-01-17T17:57:03.697Z,7.20
2023-01-17T17:59:31.168Z,7.27
2023-01-17T18:01:59.618Z,7.24
2023-01-17T18:04:26.633Z,7.22
2023-01-17T18:06:59.563Z,7.15
2023-01-17T18:09:26.224Z,7.19
2023-01-17T18:11:53.166Z,7.21
2023-01-17T18:14:22.062Z,7.31
2023-01-17T18:16:48.775Z,7.32
2023-01-17T18:19:21.579Z,7.31
2023-01-17T18:21:50.235Z,7.38
2023-01-17T18:24:20.275Z,7.41
2023-01-17T18:26:49.976Z,7.41
2023-01-17T18:29:19.566Z,7.54
2023-01-17T18:31:47.859Z,7.59
2023-01-17T18:34:17.249Z,7.58
2023-01-17T18:36:44.508Z,7.59
2023-01-17T18:39:14.149Z,7.66
2023-01-17T18:41:41.228Z,7.65
2023-01-17T18:44:08.590Z,7.66
2023-01-17T18:46:35.679Z,7.64
2023-01-17T18:49:03.233Z,7.56
2023-01-17T18:51:34.799Z,7.50
2023-01-17T18:54:05.333Z,7.52
2023-01-17T18:56:34.150Z,7.50
2023-01-17T18:59:01.706Z,7.44
2023-01-17T19:01:30.766Z,7.40
2023-01-17T19:04:00.102Z,7.41
2023-01-17T19:06:33.688Z,7.39
2023-01-17T19:09:00.589Z,7.43
2023-01-17T19:11:28.515Z,7.42
2023-01-17T19:13:55.992Z,7.40
2023-01-17T19:16:28.591Z,7.41
2023-01-17T19:18:57.937Z,7.39
2023-01-17T19:21:27.321Z,7.37
2023-01-17T19:23:57.229Z,7.32
2023-01-17T19:26:26.976Z,7.35
2023-01-17T19:28:56.141Z,7.41
2023-01-17T19:31:32.594Z,7.45
2023-01-17T19:34:00.096Z,7.46
2023-01-17T19:36:37.918Z,7.47
2023-01-17T19:39:07.535Z,7.44
2023-01-17T19:41:36.813Z,7.44
2023-01-17T19:44:07.009Z,7.43
2023-01-17T19:46:35.378Z,7.47
2023-01-17T19:49:03.283Z,7.47
2023-01-17T19:51:30.407Z,7.53
2023-01-17T19:54:01.044Z,7.58
2023-01-17T19:56:28.331Z,7.60
2023-01-17T19:58:57.035Z,7.57
2023-01-17T20:01:28.325Z,7.63
2023-01-17T20:03:57.917Z,7.54
2023-01-17T20:06:27.671Z,7.60
2023-01-17T20:08:55.241Z,7.60
2023-01-17T20:11:24.743Z,7.65
2023-01-17T20:13:54.181Z,7.66
2023-01-17T20:16:21.674Z,7.60
2023-01-17T20:18:49.128Z,7.51
2023-01-17T20:21:18.599Z,7.56
2023-01-17T20:23:47.069Z,7.57
2023-01-17T20:26:16.366Z,7.52
2023-01-17T20:28:44.921Z,7.60
2023-01-17T20:31:17.160Z,7.62
2023-01-17T20:33:46.849Z,7.62
2023-01-17T20:36:15.388Z,7.59
2023-01-17T20:38:43.788Z,7.60
2023-01-17T20:41:21.585Z,7.66
2023-01-17T20:43:51.729Z,7.71
2023-01-17T20:46:19.822Z,7.71
2023-01-17T20:48:49.699Z,7.66
2023-01-17T20:51:20.312Z,7.77
2023-01-17T20:53:51.453Z,7.81
2023-01-17T20:56:18.773Z,7.85
2023-01-17T20:58:45.920Z,7.90
2023-01-17T21:01:19.547Z,7.86
2023-01-17T21:03:50.964Z,7.91
2023-01-17T21:06:18.761Z,7.92
2023-01-17T21:08:46.715Z,7.87
2023-01-17T21:11:17.542Z,7.87
2023-01-17T21:13:44.551Z,7.85
2023-01-17T21:16:16.435Z,7.90
2023-01-17T21:18:45.579Z,7.91
2023-01-17T21:21:17.842Z,7.97
2023-01-17T21:23:45.373Z,7.94
2023-01-17T21:26:14.540Z,7.85
2023-01-17T21:28:46.032Z,7.84
2023-01-17T21:31:25.060Z,7.87
2023-01-17T21:33:52.813Z,7.87
2023-01-17T21:36:21.962Z,7.84
2023-01-17T21:38:56.988Z,7.76
2023-01-17T21:41:29.218Z,7.71
2023-01-17T21:44:01.392Z,7.70
2023-01-17T21:46:29.437Z,7.67
2023-01-17T21:48:57.513Z,7.68
2023-01-17T21:51:45.095Z,7.69
2023-01-17T21:54:12.150Z,7.76
2023-01-17T21:56:57.283Z,7.77
2023-01-17T21:59:23.921Z,7.75
2023-01-17T22:01:50.621Z,7.77
2023-01-17T22:04:17.361Z,7.73
2023-01-17T22:06:44.002Z,7.69
2023-01-17T22:09:10.615Z,7.69
2023-01-17T22:11:37.301Z,7.70
2023-01-17T22:14:04.837Z,7.67
2023-01-17T22:16:32.044Z,7.72
2023-01-17T22:18:59.002Z,7.72
2023-01-17T22:21:28.269Z,7.71
2023-01-17T22:23:57.758Z,7.72
2023-01-17T22:26:30.406Z,7.76
2023-01-17T22:29:00.435Z,7.74
2023-01-17T22:31:28.090Z,7.75
2023-01-17T22:33:58.164Z,7.75
2023-01-17T22:36:25.430Z,7.71
2023-01-17T22:38:52.801Z,7.65
2023-01-17T22:41:21.825Z,7.68
2023-01-17T22:43:50.860Z,7.62
2023-01-17T22:46:22.866Z,7.66
2023-01-17T22:48:49.709Z,7.67
2023-01-17T22:51:18.259Z,7.60
2023-01-17T22:53:47.928Z,7.57
2023-01-17T22:56:17.637Z,7.52
2023-01-17T22:58:48.549Z,7.47
2023-01-17T23:01:21.031Z,7.41
2023-01-17T23:03:54.112Z,7.43
2023-01-17T23:06:26.261Z,7.35
2023-01-17T23:08:56.298Z,7.35
2023-01-17T23:11:43.888Z,7.35
2023-01-17T23:14:25.819Z,7.35
2023-01-17T23:17:18.531Z,7.27
2023-01-17T23:19:52.583Z,7.26
2023-01-17T23:22:29.923Z,7.25
2023-01-17T23:25:12.106Z,7.26
2023-01-17T23:28:02.661Z,7.31
2023-01-17T23:30:37.781Z,7.24
2023-01-17T23:33:08.614Z,7.24
2023-01-17T23:35:41.480Z,7.27
2023-01-17T23:38:33.825Z,7.26
2023-01-17T23:41:25.981Z,7.15
2023-01-17T23:43:57.541Z,7.19
2023-01-17T23:46:25.525Z,7.20
2023-01-17T23:48:52.441Z,7.21
2023-01-17T23:51:19.141Z,7.19
2023-01-17T23:53:45.765Z,7.20
2023-01-17T23:56:18.541Z,7.22
2023-01-17T23:58:45.656Z,7.20
